Time;durP1;ratioP1;P1;durP2;ratioP2;P2;SDS_P1;SDS_P2;PMS_P1;PMS_P2;Temp;Humidity;BMP_temperature;BMP_pressure;BME280_temperature;BME280_humidity;BME280_pressure;Samples;Min_cycle;Max_cycle;Signal;HPM_P1;HPM_P2
2022/10/08 00:00:48;;;;;;;76.15;20.02;;;11.70;99.90;;;;;;5040184;28;20165;-84
2022/10/08 00:03:19;;;;;;;72.88;15.20;;;11.70;99.90;;;;;;5039975;28;20161;-84
2022/10/08 00:05:58;;;;;;;72.75;15.30;;;11.60;99.90;;;;;;5040478;28;20201;-84
2022/10/08 00:08:25;;;;;;;75.13;19.30;;;11.60;99.90;;;;;;5040127;28;20180;-84
2022/10/08 00:10:56;;;;;;;70.85;13.75;;;11.60;99.90;;;;;;5039624;28;20166;-84
2022/10/08 00:13:23;;;;;;;71.25;14.55;;;11.60;99.90;;;;;;5022271;28;20173;-84
2022/10/08 00:15:49;;;;;;;73.80;13.75;;;11.50;99.90;;;;;;5040727;28;20693;-84
2022/10/08 00:18:15;;;;;;;73.40;13.20;;;11.50;99.90;;;;;;5040182;28;20231;-84
2022/10/08 00:20:41;;;;;;;73.13;10.53;;;11.50;99.90;;;;;;5040822;28;20436;-84
2022/10/08 00:23:07;;;;;;;72.50;13.00;;;11.50;99.90;;;;;;5040634;28;20773;-84
2022/10/08 00:25:38;;;;;;;74.80;13.37;;;11.50;99.90;;;;;;5040454;28;20165;-84
2022/10/08 00:28:04;;;;;;;71.60;15.40;;;11.50;99.90;;;;;;5021818;28;20703;-84
2022/10/08 00:30:30;;;;;;;73.73;14.27;;;11.50;99.90;;;;;;5021936;28;20172;-84
2022/10/08 00:32:55;;;;;;;71.77;12.57;;;11.50;99.90;;;;;;5039097;28;20183;-84
2022/10/08 00:35:21;;;;;;;75.60;15.13;;;11.40;99.90;;;;;;5039857;28;20220;-84
2022/10/08 00:37:47;;;;;;;69.80;15.17;;;11.50;99.90;;;;;;5020747;28;20227;-84
2022/10/08 00:40:13;;;;;;;70.53;14.60;;;11.50;99.90;;;;;;5039669;28;20188;-84
2022/10/08 00:42:40;;;;;;;72.75;14.13;;;11.50;99.90;;;;;;5039438;28;20160;-84
2022/10/08 00:45:11;;;;;;;69.57;12.52;;;11.40;99.90;;;;;;5021846;28;20165;-84
2022/10/08 00:47:45;;;;;;;71.55;14.38;;;11.50;99.90;;;;;;5021261;28;20160;-84
2022/10/08 00:50:22;;;;;;;70.28;14.18;;;11.50;99.90;;;;;;5021074;28;20158;-84
2022/10/08 00:53:03;;;;;;;75.72;14.63;;;11.40;99.90;;;;;;5039508;28;20177;-84
2022/10/08 00:55:30;;;;;;;71.97;11.73;;;11.40;99.90;;;;;;5038524;28;20636;-84
2022/10/08 00:58:10;;;;;;;72.68;12.55;;;11.40;99.90;;;;;;5038791;28;20201;-84
2022/10/08 01:00:36;;;;;;;75.30;14.52;;;11.40;99.90;;;;;;5038802;28;20609;-84
2022/10/08 01:03:02;;;;;;;69.20;12.37;;;11.40;99.90;;;;;;5039369;28;20204;-84
2022/10/08 01:05:29;;;;;;;70.10;12.52;;;11.30;99.90;;;;;;5021226;28;20428;-84
2022/10/08 01:08:09;;;;;;;70.50;12.88;;;11.40;99.90;;;;;;5038451;28;20264;-84
2022/10/08 01:11:13;;;;;;;70.72;12.07;;;11.30;99.90;;;;;;5021453;28;20322;-84
2022/10/08 01:14:01;;;;;;;70.43;13.02;;;11.20;99.90;;;;;;4997404;28;20177;-84
2022/10/08 01:17:09;;;;;;;71.75;13.18;;;11.20;99.90;;;;;;5037280;28;20249;-84
2022/10/08 01:19:53;;;;;;;70.88;12.23;;;11.20;99.90;;;;;;5011633;28;20217;-84
2022/10/08 01:22:56;;;;;;;73.25;13.13;;;11.10;99.90;;;;;;5038975;28;20149;-84
2022/10/08 01:25:38;;;;;;;71.72;11.95;;;11.10;99.90;;;;;;5038278;28;20192;-84
2022/10/08 01:28:22;;;;;;;70.75;12.63;;;11.10;99.90;;;;;;5020772;28;20209;-84
2022/10/08 01:31:03;;;;;;;71.85;13.38;;;11.10;99.90;;;;;;5020091;28;20200;-84
2022/10/08 01:33:46;;;;;;;72.70;13.80;;;11.10;99.90;;;;;;5038558;28;20232;-84
2022/10/08 01:36:16;;;;;;;73.78;14.85;;;11.10;99.90;;;;;;5037951;28;20648;-84
2022/10/08 01:38:48;;;;;;;71.40;16.90;;;11.10;99.90;;;;;;5038376;28;20201;-84
2022/10/08 01:41:17;;;;;;;68.43;13.52;;;11.10;99.90;;;;;;5038217;28;20161;-84
2022/10/08 01:43:48;;;;;;;68.15;13.95;;;11.10;99.90;;;;;;5037089;28;20170;-84
2022/10/08 01:46:19;;;;;;;71.30;14.68;;;11.00;99.90;;;;;;5037858;28;20204;-84
2022/10/08 01:48:48;;;;;;;74.35;15.15;;;11.00;99.90;;;;;;5020258;28;20193;-84
2022/10/08 01:51:22;;;;;;;74.15;16.88;;;11.00;99.90;;;;;;5038817;28;20198;-84
2022/10/08 01:53:51;;;;;;;76.40;17.25;;;11.00;99.90;;;;;;5020661;28;20167;-84
2022/10/08 01:56:22;;;;;;;74.90;19.13;;;11.00;99.90;;;;;;5038572;28;20166;-84
2022/10/08 01:59:04;;;;;;;76.30;19.30;;;11.00;99.90;;;;;;5038500;28;20204;-84
2022/10/08 02:01:42;;;;;;;70.97;16.25;;;11.00;99.90;;;;;;5020720;28;20502;-84
2022/10/08 02:06:56;;;;;;;74.50;17.90;;;11.00;99.90;;;;;;5038237;28;20537;-84
2022/10/08 02:09:25;;;;;;;76.65;24.13;;;10.90;99.90;;;;;;5020421;28;20189;-84
2022/10/08 02:11:51;;;;;;;79.18;23.83;;;11.00;99.90;;;;;;5019760;28;20219;-84
2022/10/08 02:14:17;;;;;;;75.47;26.45;;;11.00;99.90;;;;;;5038129;28;20183;-84
2022/10/08 02:16:51;;;;;;;74.68;28.73;;;10.90;99.90;;;;;;5038292;28;20174;-84
2022/10/08 02:19:28;;;;;;;75.90;29.88;;;10.90;99.90;;;;;;5020513;28;20205;-84
2022/10/08 02:21:55;;;;;;;74.72;32.95;;;10.90;99.90;;;;;;5037394;28;20165;-84
2022/10/08 02:24:36;;;;;;;78.82;32.08;;;11.00;99.90;;;;;;5038093;28;20169;-84
2022/10/08 02:27:05;;;;;;;77.50;36.03;;;11.00;99.90;;;;;;5037697;28;20149;-83
2022/10/08 02:29:47;;;;;;;79.82;28.58;;;11.00;99.90;;;;;;5019785;28;20192;-84
2022/10/08 02:32:29;;;;;;;82.35;39.85;;;11.00;99.90;;;;;;5037881;28;20195;-84
2022/10/08 02:35:24;;;;;;;79.28;38.88;;;11.00;99.90;;;;;;5037422;28;20187;-84
2022/10/08 02:38:04;;;;;;;78.32;37.25;;;11.10;99.90;;;;;;5018838;28;20205;-84
2022/10/08 02:40:32;;;;;;;83.28;42.60;;;11.10;99.90;;;;;;5038365;28;20184;-84
2022/10/08 02:43:04;;;;;;;82.07;42.08;;;11.10;99.90;;;;;;5038940;28;20529;-84
2022/10/08 02:45:35;;;;;;;85.40;45.13;;;11.00;99.90;;;;;;5038711;28;20146;-84
2022/10/08 02:48:17;;;;;;;78.72;40.08;;;11.00;99.90;;;;;;5037629;28;20224;-84
2022/10/08 02:50:46;;;;;;;78.10;39.05;;;11.10;99.90;;;;;;5020142;28;20277;-84
2022/10/08 02:53:17;;;;;;;80.38;45.40;;;11.00;99.90;;;;;;5019695;28;20173;-84
2022/10/08 02:56:07;;;;;;;84.75;49.70;;;10.90;99.90;;;;;;5041357;28;20146;-84
2022/10/08 02:58:33;;;;;;;86.50;47.67;;;10.90;99.90;;;;;;5040345;28;20254;-84
2022/10/08 03:01:08;;;;;;;79.85;45.03;;;10.90;99.90;;;;;;5023679;28;20165;-84
2022/10/08 03:03:39;;;;;;;83.63;45.92;;;10.90;99.90;;;;;;5041208;28;20146;-84
2022/10/08 03:06:08;;;;;;;88.93;48.20;;;10.90;99.90;;;;;;5040978;28;20256;-84
2022/10/08 03:08:38;;;;;;;86.22;46.10;;;10.90;99.90;;;;;;5040719;28;20189;-84
2022/10/08 03:11:05;;;;;;;83.13;49.78;;;10.90;99.90;;;;;;5041634;28;20208;-84
2022/10/08 03:13:38;;;;;;;82.45;49.45;;;10.90;99.90;;;;;;5041143;28;20170;-84
2022/10/08 03:16:07;;;;;;;84.65;41.65;;;10.90;99.90;;;;;;5041013;28;20141;-84
2022/10/08 03:18:35;;;;;;;80.93;43.45;;;10.90;99.90;;;;;;5040850;28;20197;-84
2022/10/08 03:21:02;;;;;;;81.22;45.70;;;10.90;99.90;;;;;;5040729;28;20160;-84
2022/10/08 03:23:28;;;;;;;82.03;45.33;;;10.90;99.90;;;;;;5022929;28;20760;-84
2022/10/08 03:25:53;;;;;;;84.37;42.97;;;10.90;99.90;;;;;;5022938;28;20196;-84
2022/10/08 03:28:19;;;;;;;82.10;45.53;;;10.80;99.90;;;;;;5040918;28;20661;-84
2022/10/08 03:30:46;;;;;;;82.60;46.87;;;10.90;99.90;;;;;;5023252;28;20609;-84
2022/10/08 03:33:11;;;;;;;78.35;33.80;;;10.80;99.90;;;;;;5040581;28;20176;-84
2022/10/08 03:35:44;;;;;;;75.10;32.57;;;10.80;99.90;;;;;;5023489;28;20256;-84
2022/10/08 03:38:10;;;;;;;77.85;29.48;;;10.80;99.90;;;;;;5022212;28;20268;-84
2022/10/08 03:40:36;;;;;;;90.33;51.37;;;10.80;99.90;;;;;;5040367;28;20598;-84
2022/10/08 03:43:01;;;;;;;77.47;33.23;;;10.80;99.90;;;;;;5022938;28;20418;-84
2022/10/08 03:45:27;;;;;;;75.47;31.60;;;10.80;99.90;;;;;;5022799;28;20284;-84
2022/10/08 03:47:53;;;;;;;72.70;25.67;;;10.80;99.90;;;;;;5022392;28;20189;-84
2022/10/08 03:50:22;;;;;;;74.67;25.60;;;10.80;99.90;;;;;;5041008;28;20169;-84
2022/10/08 03:52:47;;;;;;;74.68;25.55;;;10.80;99.90;;;;;;5022401;28;20172;-84
2022/10/08 03:55:13;;;;;;;71.40;21.10;;;10.80;99.90;;;;;;5040345;28;20219;-84
2022/10/08 03:57:39;;;;;;;80.67;27.27;;;10.80;99.90;;;;;;5039743;28;20165;-84
2022/10/08 04:00:05;;;;;;;74.17;22.00;;;10.80;99.90;;;;;;5039970;28;20176;-84
2022/10/08 04:02:34;;;;;;;69.50;16.00;;;10.80;99.90;;;;;;5039900;28;20159;-84
2022/10/08 04:04:59;;;;;;;71.03;14.13;;;10.80;99.90;;;;;;5038667;28;20200;-84
2022/10/08 04:07:27;;;;;;;72.33;15.93;;;10.80;99.90;;;;;;5039379;28;20149;-84
2022/10/08 04:09:52;;;;;;;71.63;11.25;;;10.90;99.90;;;;;;5022357;28;20182;-84
2022/10/08 04:12:18;;;;;;;71.63;13.33;;;10.90;99.90;;;;;;5040642;28;20548;-84
2022/10/08 04:14:43;;;;;;;75.20;12.23;;;10.90;99.90;;;;;;5022536;28;20175;-84
2022/10/08 04:17:09;;;;;;;75.07;10.67;;;11.00;99.90;;;;;;5039874;28;20247;-84
2022/10/08 04:19:35;;;;;;;68.90;10.57;;;11.00;99.90;;;;;;5039781;28;20208;-84
2022/10/08 04:22:00;;;;;;;71.67;12.00;;;11.00;99.90;;;;;;5039515;28;20167;-84
2022/10/08 04:24:26;;;;;;;70.73;11.40;;;11.00;99.90;;;;;;5040410;28;20161;-84
2022/10/08 04:26:52;;;;;;;70.70;9.70;;;11.10;99.90;;;;;;5022675;28;20196;-84
2022/10/08 04:29:17;;;;;;;71.00;9.87;;;11.10;99.90;;;;;;5040833;28;20189;-84
2022/10/08 04:31:43;;;;;;;75.60;12.17;;;11.10;99.90;;;;;;5040429;28;20239;-84
2022/10/08 04:34:10;;;;;;;71.13;10.70;;;11.10;99.90;;;;;;5040726;28;20173;-84
2022/10/08 04:36:36;;;;;;;69.38;11.23;;;11.10;99.90;;;;;;5040578;28;20168;-84
2022/10/08 04:39:02;;;;;;;71.00;11.37;;;11.20;99.90;;;;;;5040243;28;20280;-84
2022/10/08 04:41:27;;;;;;;69.87;10.07;;;11.20;99.90;;;;;;5040556;28;20235;-84
2022/10/08 04:43:57;;;;;;;72.23;10.10;;;11.20;99.90;;;;;;5039864;28;20407;-84
2022/10/08 04:46:25;;;;;;;72.55;11.50;;;11.20;99.90;;;;;;5039644;28;20169;-84
2022/10/08 04:48:55;;;;;;;73.15;11.30;;;11.20;99.90;;;;;;5039802;28;20664;-84
2022/10/08 04:51:23;;;;;;;71.85;11.65;;;11.20;99.90;;;;;;5021819;28;20231;-85
2022/10/08 04:53:50;;;;;;;68.88;12.40;;;11.30;99.90;;;;;;5039052;28;20165;-84
2022/10/08 04:56:18;;;;;;;73.75;14.35;;;11.30;99.90;;;;;;5039123;28;20161;-84
2022/10/08 04:58:44;;;;;;;72.45;18.45;;;11.40;99.90;;;;;;5038434;28;20192;-84
2022/10/08 05:01:12;;;;;;;77.87;23.67;;;11.30;99.90;;;;;;5038894;28;20176;-84
2022/10/08 05:03:40;;;;;;;76.85;25.77;;;11.40;99.90;;;;;;5038585;28;20166;-84
2022/10/08 05:06:09;;;;;;;75.40;26.20;;;11.40;99.90;;;;;;5097707;22;20282;-89
2022/10/08 05:08:38;;;;;;;82.22;36.65;;;11.50;99.90;;;;;;5026970;28;20307;-89
2022/10/08 05:11:04;;;;;;;83.43;38.67;;;11.40;99.90;;;;;;5034146;28;20169;-88
2022/10/08 05:13:33;;;;;;;76.90;37.53;;;11.40;99.90;;;;;;5034122;28;20176;-89
2022/10/08 05:16:09;;;;;;;80.85;42.55;;;11.40;99.90;;;;;;5016577;28;20212;-88
2022/10/08 05:18:41;;;;;;;84.38;39.72;;;11.40;99.90;;;;;;5016583;28;20208;-88
2022/10/08 05:21:13;;;;;;;81.80;41.45;;;11.40;99.90;;;;;;5034114;28;20232;-88
2022/10/08 05:23:42;;;;;;;82.55;45.83;;;11.40;99.90;;;;;;5034286;28;20487;-88
2022/10/08 05:26:20;;;;;;;79.28;44.88;;;11.40;99.90;;;;;;5033816;28;20189;-88
2022/10/08 05:28:52;;;;;;;83.90;45.38;;;11.40;99.90;;;;;;5016553;28;20250;-88
2022/10/08 05:31:18;;;;;;;81.35;49.65;;;11.40;99.90;;;;;;5016850;28;20672;-88
2022/10/08 05:33:44;;;;;;;85.90;56.67;;;11.40;99.90;;;;;;5033728;28;20168;-88
2022/10/08 05:36:17;;;;;;;86.63;60.17;;;11.40;99.90;;;;;;5033759;28;20173;-88
2022/10/08 05:38:43;;;;;;;84.03;55.15;;;11.40;99.90;;;;;;5033654;28;20212;-88
2022/10/08 05:41:14;;;;;;;84.90;53.13;;;11.40;99.90;;;;;;5033301;28;20633;-88
2022/10/08 05:43:40;;;;;;;88.38;52.75;;;11.40;99.90;;;;;;5033590;28;20153;-87
2022/10/08 05:46:06;;;;;;;79.88;49.08;;;11.50;99.90;;;;;;5033254;28;20248;-87
2022/10/08 05:48:35;;;;;;;80.87;51.73;;;11.50;99.90;;;;;;5033523;28;20216;-87
2022/10/08 05:51:09;;;;;;;84.13;55.00;;;11.50;99.90;;;;;;5015464;28;20169;-87
2022/10/08 05:53:39;;;;;;;81.82;40.78;;;11.50;99.90;;;;;;5015783;28;20169;-87
2022/10/08 05:56:08;;;;;;;78.22;31.48;;;11.60;99.90;;;;;;5015670;28;20200;-87
2022/10/08 05:58:36;;;;;;;77.72;32.45;;;11.60;99.90;;;;;;5015408;28;20214;-87
2022/10/08 06:01:05;;;;;;;76.38;29.08;;;11.60;99.90;;;;;;5033206;28;20533;-87
2022/10/08 06:03:31;;;;;;;73.05;22.20;;;11.80;99.90;;;;;;5033216;28;20244;-87
2022/10/08 06:06:02;;;;;;;73.43;18.63;;;11.90;99.90;;;;;;5033227;28;20259;-87
2022/10/08 06:08:28;;;;;;;71.03;17.27;;;11.90;99.90;;;;;;5033303;28;20208;-87
2022/10/08 06:10:54;;;;;;;75.83;19.37;;;11.90;99.90;;;;;;5033197;28;20706;-87
2022/10/08 06:13:21;;;;;;;73.00;17.05;;;12.00;99.90;;;;;;5033012;28;20176;-88
2022/10/08 06:15:57;;;;;;;72.97;20.27;;;12.00;99.90;;;;;;5033668;28;20176;-87
2022/10/08 06:18:24;;;;;;;76.25;19.73;;;12.00;99.90;;;;;;5033291;28;20210;-88
2022/10/08 06:20:50;;;;;;;77.68;17.63;;;12.00;99.90;;;;;;5033712;28;20169;-88
2022/10/08 06:23:16;;;;;;;70.97;16.07;;;12.00;99.90;;;;;;5031742;28;20257;-88
2022/10/08 06:25:41;;;;;;;74.07;17.65;;;12.10;99.90;;;;;;5033288;28;20432;-88
2022/10/08 06:28:07;;;;;;;76.00;17.70;;;12.20;99.90;;;;;;5015179;28;20683;-87
2022/10/08 06:30:33;;;;;;;74.90;18.83;;;12.20;99.90;;;;;;5036967;28;20165;-87
2022/10/08 06:32:59;;;;;;;79.73;19.20;;;12.30;99.90;;;;;;5037031;28;20172;-87
2022/10/08 06:35:24;;;;;;;77.03;19.60;;;12.30;99.90;;;;;;5036857;28;20419;-87
2022/10/08 06:37:50;;;;;;;79.90;24.03;;;12.20;99.90;;;;;;5019253;28;20205;-88
2022/10/08 06:40:16;;;;;;;77.10;19.80;;;12.20;99.90;;;;;;5037195;28;20515;-88
2022/10/08 06:42:44;;;;;;;76.90;25.87;;;12.20;99.90;;;;;;5019938;28;20169;-87
2022/10/08 06:45:10;;;;;;;75.70;23.45;;;12.30;99.90;;;;;;5037052;28;20411;-87
2022/10/08 06:47:35;;;;;;;75.20;22.10;;;12.30;99.90;;;;;;5019166;28;20169;-88
2022/10/08 06:50:04;;;;;;;79.40;23.07;;;12.40;99.90;;;;;;5019031;28;20439;-88
2022/10/08 06:52:51;;;;;;;75.95;25.65;;;12.40;99.90;;;;;;5036806;28;20438;-88
2022/10/08 06:55:16;;;;;;;75.35;19.60;;;12.40;99.90;;;;;;5018807;28;20193;-88
2022/10/08 06:57:42;;;;;;;85.20;22.57;;;12.50;99.90;;;;;;5018639;28;20204;-88
2022/10/08 07:00:09;;;;;;;75.67;24.77;;;12.50;99.90;;;;;;5036509;28;20212;-88
2022/10/08 07:02:34;;;;;;;78.80;22.10;;;12.50;99.90;;;;;;5018932;28;20170;-88
2022/10/08 07:05:00;;;;;;;84.27;24.30;;;12.60;99.90;;;;;;5036280;28;20180;-88
2022/10/08 07:07:28;;;;;;;80.53;24.47;;;12.70;99.90;;;;;;5018762;28;20162;-88
2022/10/08 07:09:54;;;;;;;78.05;19.95;;;12.70;99.90;;;;;;5018504;28;20185;-87
2022/10/08 07:12:20;;;;;;;76.90;21.10;;;12.70;99.90;;;;;;5018574;28;20170;-87
2022/10/08 07:14:45;;;;;;;75.97;18.87;;;12.80;99.90;;;;;;5036480;28;20197;-87
2022/10/08 07:17:11;;;;;;;76.07;19.43;;;12.80;99.90;;;;;;5036391;28;20161;-87
2022/10/08 07:19:37;;;;;;;77.47;18.57;;;12.90;99.90;;;;;;5036020;28;20195;-87
2022/10/08 07:22:03;;;;;;;71.87;16.23;;;12.90;99.90;;;;;;5036142;28;20271;-87
2022/10/08 07:24:28;;;;;;;71.07;16.80;;;12.90;99.90;;;;;;5036183;28;20196;-86
2022/10/08 07:26:54;;;;;;;73.30;14.27;;;12.90;99.90;;;;;;5036923;28;20252;-86
2022/10/08 07:29:20;;;;;;;70.70;12.67;;;12.90;99.90;;;;;;5035228;28;20192;-86
2022/10/08 07:31:45;;;;;;;72.90;12.13;;;12.90;99.90;;;;;;5036857;28;20165;-86
2022/10/08 07:34:12;;;;;;;71.93;12.97;;;13.00;99.90;;;;;;5037645;28;20227;-86
2022/10/08 07:36:39;;;;;;;73.10;13.50;;;13.00;99.90;;;;;;5018684;28;20169;-86
2022/10/08 07:39:14;;;;;;;77.57;14.40;;;13.00;99.90;;;;;;5035100;28;20994;-86
2022/10/08 07:41:40;;;;;;;75.85;13.90;;;13.10;99.90;;;;;;5035869;28;20212;-86
2022/10/08 07:44:06;;;;;;;72.90;13.57;;;13.20;99.90;;;;;;5018689;28;20196;-86
2022/10/08 07:46:35;;;;;;;73.68;13.43;;;13.20;99.90;;;;;;5035109;28;20166;-86
2022/10/08 07:49:01;;;;;;;73.97;13.87;;;13.20;99.90;;;;;;5018994;28;20565;-87
2022/10/08 07:51:30;;;;;;;73.32;11.90;;;13.20;99.90;;;;;;5036534;28;20412;-86
2022/10/08 07:53:56;;;;;;;79.53;14.20;;;13.20;99.90;;;;;;5036470;28;20560;-86
2022/10/08 07:56:22;;;;;;;77.53;12.88;;;13.30;99.90;;;;;;5036299;28;20162;-86
2022/10/08 07:58:49;;;;;;;74.23;13.67;;;13.30;99.90;;;;;;5036409;28;20220;-86
2022/10/08 08:01:21;;;;;;;78.55;18.27;;;13.30;99.90;;;;;;5035422;28;20203;-86
2022/10/08 08:03:54;;;;;;;74.85;15.27;;;13.30;99.90;;;;;;5036513;28;20633;-86
2022/10/08 08:06:19;;;;;;;73.00;13.00;;;13.30;99.90;;;;;;5036320;28;20188;-86
2022/10/08 08:08:45;;;;;;;79.40;15.80;;;13.30;99.90;;;;;;5036755;28;20574;-86
2022/10/08 08:11:14;;;;;;;75.43;14.77;;;13.30;99.90;;;;;;5035877;28;20538;-86
2022/10/08 08:13:40;;;;;;;74.50;15.60;;;13.20;99.90;;;;;;5036398;28;20177;-86
2022/10/08 08:16:09;;;;;;;81.55;14.95;;;13.20;99.90;;;;;;5017828;28;20989;-86
2022/10/08 08:18:37;;;;;;;77.65;16.48;;;13.20;99.90;;;;;;5035608;28;20304;-86
2022/10/08 08:21:08;;;;;;;77.63;17.90;;;13.30;99.90;;;;;;5035611;28;20161;-86
2022/10/08 08:23:39;;;;;;;78.60;17.27;;;13.30;99.90;;;;;;5035718;28;20149;-86
2022/10/08 08:26:08;;;;;;;82.70;16.63;;;13.40;99.90;;;;;;5035815;28;20153;-86
2022/10/08 08:28:34;;;;;;;78.17;17.83;;;13.50;99.90;;;;;;5035301;28;20185;-86
2022/10/08 08:31:25;;;;;;;81.97;17.43;;;13.50;99.90;;;;;;5017902;28;20416;-86
2022/10/08 08:34:02;;;;;;;81.93;18.52;;;13.50;99.90;;;;;;5035904;28;20389;-86
2022/10/08 08:36:32;;;;;;;77.70;19.60;;;13.60;99.90;;;;;;5035947;28;20200;-86
2022/10/08 08:38:58;;;;;;;82.28;16.75;;;13.60;99.90;;;;;;5035364;28;20439;-86
2022/10/08 08:41:35;;;;;;;79.75;18.67;;;13.70;99.90;;;;;;5035375;28;20161;-86
2022/10/08 08:44:08;;;;;;;88.60;18.17;;;13.70;99.90;;;;;;5035858;28;20184;-86
2022/10/08 08:46:41;;;;;;;79.10;16.55;;;13.80;99.90;;;;;;5035631;28;20513;-86
2022/10/08 08:49:24;;;;;;;82.22;21.23;;;13.80;99.90;;;;;;5017293;28;20189;-86
2022/10/08 08:51:52;;;;;;;77.07;19.77;;;13.90;99.90;;;;;;5035070;28;20164;-86
2022/10/08 08:54:17;;;;;;;80.87;20.00;;;14.10;99.90;;;;;;5035081;28;20408;-86
2022/10/08 08:56:46;;;;;;;78.30;17.10;;;14.20;99.90;;;;;;5035103;28;20458;-86
2022/10/08 08:59:32;;;;;;;73.22;12.35;;;14.30;99.90;;;;;;5034978;28;20208;-86
2022/10/08 09:02:02;;;;;;;79.97;12.30;;;14.40;99.90;;;;;;5033857;28;20154;-86
2022/10/08 09:04:54;;;;;;;76.87;18.40;;;14.50;99.90;;;;;;5035637;28;20389;-86
2022/10/08 09:07:25;;;;;;;79.33;21.10;;;14.40;99.90;;;;;;5035780;28;20389;-86
2022/10/08 09:09:53;;;;;;;77.53;21.70;;;14.30;99.90;;;;;;5018301;28;20424;-86
2022/10/08 09:12:21;;;;;;;73.07;19.80;;;14.20;99.90;;;;;;5035407;28;20400;-86
2022/10/08 09:14:54;;;;;;;74.00;20.60;;;14.20;99.90;;;;;;5035593;28;20434;-86
2022/10/08 09:17:38;;;;;;;76.33;22.60;;;14.20;99.90;;;;;;5035562;28;20383;-86
2022/10/08 09:20:09;;;;;;;74.07;19.60;;;14.20;99.90;;;;;;5018461;28;20463;-86
2022/10/08 09:22:38;;;;;;;79.07;18.70;;;14.20;99.90;;;;;;5033197;28;20488;-86
2022/10/08 09:25:16;;;;;;;73.77;22.50;;;14.30;99.90;;;;;;5034022;28;20772;-86
2022/10/08 09:27:57;;;;;;;74.87;21.07;;;14.40;99.90;;;;;;5034413;28;20410;-87
2022/10/08 09:30:36;;;;;;;71.50;21.17;;;14.40;99.90;;;;;;5034149;28;20721;-86
2022/10/08 09:33:22;;;;;;;72.20;21.47;;;14.50;99.90;;;;;;5032983;28;20395;-86
2022/10/08 09:35:50;;;;;;;69.60;13.37;;;14.70;99.90;;;;;;5034663;28;20377;-86
2022/10/08 09:38:28;;;;;;;73.17;13.23;;;14.80;99.90;;;;;;5016667;28;20455;-86
2022/10/08 09:41:03;;;;;;;71.03;11.47;;;14.80;99.90;;;;;;5034050;28;20412;-86
2022/10/08 09:43:30;;;;;;;70.50;12.40;;;14.70;99.90;;;;;;5034145;28;20383;-86
2022/10/08 09:45:57;;;;;;;70.93;12.77;;;14.80;99.90;;;;;;5016318;28;20872;-86
2022/10/08 09:48:27;;;;;;;74.53;15.73;;;14.80;99.90;;;;;;5017084;28;20993;-86
2022/10/08 09:51:06;;;;;;;71.20;15.00;;;14.80;99.90;;;;;;5034559;28;20408;-86
2022/10/08 09:53:46;;;;;;;75.53;14.03;;;14.90;99.90;;;;;;5033762;28;20384;-86
2022/10/08 09:56:13;;;;;;;75.77;16.80;;;14.80;99.90;;;;;;5034388;28;20752;-86
2022/10/08 09:59:01;;;;;;;74.70;12.77;;;14.90;99.90;;;;;;5034645;28;20835;-85
2022/10/08 10:01:30;;;;;;;73.23;10.70;;;14.90;99.90;;;;;;5017508;28;20416;-86
2022/10/08 10:03:58;;;;;;;70.00;12.13;;;14.80;99.90;;;;;;5034805;28;20408;-86
2022/10/08 10:06:28;;;;;;;72.27;12.80;;;14.80;99.90;;;;;;5039192;28;20426;-86
2022/10/08 10:09:00;;;;;;;74.67;15.93;;;14.70;99.90;;;;;;5038032;28;20432;-86
2022/10/08 10:11:42;;;;;;;70.07;11.07;;;14.80;99.90;;;;;;5022680;28;20891;-85
2022/10/08 10:14:42;;;;;;;69.50;10.40;;;14.80;99.90;;;;;;5023341;28;20425;-86
2022/10/08 10:17:18;;;;;;;73.47;17.63;;;14.80;99.90;;;;;;5038380;28;20416;-86
2022/10/08 10:19:59;;;;;;;76.13;10.87;;;15.00;99.90;;;;;;5038058;28;20451;-86
2022/10/08 10:22:50;;;;;;;70.33;8.07;;;15.30;99.90;;;;;;5037046;28;20422;-86
2022/10/08 10:25:36;;;;;;;69.80;8.37;;;15.80;99.90;;;;;;5037552;28;20422;-86
2022/10/08 10:28:12;;;;;;;74.13;4.93;;;16.20;99.90;;;;;;5037563;28;20572;-86
2022/10/08 10:30:58;;;;;;;71.80;5.27;;;16.40;92.20;;;;;;5037113;28;20474;-86
2022/10/08 10:33:28;;;;;;;70.43;4.33;;;16.30;70.50;;;;;;5037212;28;20388;-86
2022/10/08 10:36:04;;;;;;;68.13;4.10;;;16.20;78.00;;;;;;5037411;28;20385;-86
2022/10/08 10:38:35;;;;;;;68.10;4.27;;;16.00;82.70;;;;;;5019158;28;20447;-86
2022/10/08 10:41:21;;;;;;;67.33;5.00;;;15.90;90.80;;;;;;5037219;28;20435;-86
2022/10/08 10:43:52;;;;;;;71.60;4.60;;;15.80;86.70;;;;;;5037070;28;20373;-86
2022/10/08 10:46:40;;;;;;;69.00;4.50;;;15.70;85.20;;;;;;5036897;28;20745;-86
2022/10/08 10:49:36;;;;;;;66.80;4.40;;;15.50;90.70;;;;;;5036837;28;20423;-86
2022/10/08 10:52:32;;;;;;;67.70;4.60;;;15.40;93.80;;;;;;5036937;28;20389;-86
2022/10/08 10:54:58;;;;;;;70.50;4.50;;;15.50;92.10;;;;;;5037020;28;20478;-86
2022/10/08 10:57:38;;;;;;;67.63;3.40;;;15.80;84.80;;;;;;5020193;28;20436;-86
2022/10/08 11:00:26;;;;;;;68.20;4.00;;;16.00;82.40;;;;;;5039747;28;20173;-86
2022/10/08 11:03:09;;;;;;;73.17;4.10;;;16.30;79.90;;;;;;5037601;28;20483;-86
2022/10/08 11:05:38;;;;;;;68.90;5.47;;;16.50;55.20;;;;;;5109503;22;20475;-85
2022/10/08 11:08:18;;;;;;;69.77;4.70;;;16.70;55.20;;;;;;5027941;28;20497;-86
2022/10/08 11:10:54;;;;;;;66.77;4.80;;;16.90;45.00;;;;;;5045585;28;20365;-86
2022/10/08 11:13:31;;;;;;;70.83;6.00;;;17.10;30.30;;;;;;5047291;28;20744;-86
2022/10/08 11:16:10;;;;;;;69.93;6.10;;;17.40;31.00;;;;;;5045824;28;20470;-85
2022/10/08 11:18:56;;;;;;;75.13;5.63;;;17.70;27.90;;;;;;5027449;28;20452;-85
2022/10/08 11:21:36;;;;;;;67.90;4.20;;;17.90;24.60;;;;;;5045229;28;20435;-86
2022/10/08 11:24:28;;;;;;;69.90;5.10;;;18.10;4.90;;;;;;5027596;28;20395;-86
2022/10/08 11:27:02;;;;;;;69.37;4.00;;;18.20;4.20;;;;;;5037457;28;20420;-85
2022/10/08 11:29:59;;;;;;;68.50;4.30;;;18.50;7.00;;;;;;5045404;28;20896;-86
2022/10/08 11:32:25;;;;;;;68.47;3.83;;;18.60;1.00;;;;;;5044204;28;20400;-86
2022/10/08 11:35:21;;;;;;;66.70;3.70;;;18.30;1.00;;;;;;5045761;28;20875;-86
2022/10/08 11:37:50;;;;;;;67.43;3.93;;;18.10;1.00;;;;;;5045485;28;20443;-86
2022/10/08 11:40:29;;;;;;;67.00;4.30;;;18.30;1.00;;;;;;5043766;28;20400;-86
2022/10/08 11:43:19;;;;;;;66.03;3.57;;;18.40;1.00;;;;;;5045702;28;20383;-86
2022/10/08 11:45:45;;;;;;;69.50;4.50;;;18.20;1.00;;;;;;5045141;28;20431;-86
2022/10/08 11:48:34;;;;;;;70.40;5.37;;;18.10;1.00;;;;;;5045275;28;20426;-85
2022/10/08 11:51:18;;;;;;;65.60;3.07;;;18.30;1.00;;;;;;5044648;28;20157;-86
2022/10/08 11:54:15;;;;;;;66.80;3.30;;;18.40;1.00;;;;;;5043028;28;20890;-86
2022/10/08 11:57:03;;;;;;;71.83;3.27;;;18.60;1.00;;;;;;5044059;28;20416;-86
2022/10/08 11:59:39;;;;;;;67.00;4.20;;;18.70;1.00;;;;;;5042350;28;20470;-86
2022/10/08 12:02:17;;;;;;;67.90;4.50;;;18.60;1.00;;;;;;5043147;28;20403;-86
2022/10/08 12:04:45;;;;;;;67.53;4.30;;;18.50;1.00;;;;;;5025046;28;20411;-86
2022/10/08 12:07:20;;;;;;;70.00;4.30;;;18.40;1.00;;;;;;5043685;28;20454;-86
2022/10/08 12:10:23;;;;;;;67.97;4.60;;;18.40;1.00;;;;;;5042797;28;20852;-86
2022/10/08 12:12:49;;;;;;;66.30;3.70;;;18.10;1.00;;;;;;5042256;28;20384;-85
2022/10/08 12:15:23;;;;;;;68.27;3.50;;;17.90;1.00;;;;;;5043739;28;20802;-85
2022/10/08 12:17:50;;;;;;;70.50;4.03;;;17.70;9.10;;;;;;5025799;28;20275;-86
2022/10/08 12:20:22;;;;;;;70.50;4.17;;;17.30;13.10;;;;;;5044890;28;20399;-85
2022/10/08 12:23:08;;;;;;;76.57;3.50;;;17.00;23.00;;;;;;5026665;28;20409;-86
2022/10/08 12:25:47;;;;;;;65.93;3.30;;;17.10;16.70;;;;;;5026317;28;20404;-86
2022/10/08 12:28:19;;;;;;;68.40;3.97;;;17.20;16.90;;;;;;5025112;28;20445;-86
2022/10/08 12:31:14;;;;;;;69.53;3.33;;;17.40;8.70;;;;;;5043726;28;20416;-86
2022/10/08 12:33:40;;;;;;;69.30;3.57;;;17.50;3.50;;;;;;5025048;28;20427;-86
2022/10/08 12:36:09;;;;;;;67.90;3.43;;;17.50;1.00;;;;;;5043806;28;20406;-85
2022/10/08 12:39:08;;;;;;;70.30;4.80;;;17.80;1.10;;;;;;5044007;28;20963;-86
2022/10/08 12:41:45;;;;;;;66.73;3.80;;;18.00;1.00;;;;;;5043094;28;20419;-86
2022/10/08 12:44:17;;;;;;;66.90;2.97;;;18.00;1.00;;;;;;5024289;28;20495;-86
2022/10/08 12:47:03;;;;;;;72.90;3.70;;;17.90;1.00;;;;;;5042412;28;20511;-86
2022/10/08 12:49:42;;;;;;;67.43;3.13;;;17.70;1.00;;;;;;5025109;28;20448;-86
2022/10/08 12:52:12;;;;;;;65.57;3.20;;;17.60;1.00;;;;;;5043557;28;20400;-86
2022/10/08 12:54:45;;;;;;;66.47;2.77;;;17.60;1.00;;;;;;5043634;28;20411;-85
2022/10/08 12:57:12;;;;;;;66.70;2.67;;;17.50;1.00;;;;;;5044117;28;20396;-86
2022/10/08 12:59:40;;;;;;;66.77;2.90;;;17.30;1.00;;;;;;5043134;28;20452;-86